sensor_id;sensor_type;location;lat;lon;timestamp;pressure;altitude;pressure_sealevel;temperature;humidity
58975;BME280;44751;52.236;5.178;2022-08-06T00:00:50;102478.88;;;12.78;98.31
58975;BME280;44751;52.236;5.178;2022-08-06T00:03:22;102475.94;;;12.90;98.53
58975;BME280;44751;52.236;5.178;2022-08-06T00:05:51;102489.41;;;12.82;98.73
58975;BME280;44751;52.236;5.178;2022-08-06T00:08:17;102477.97;;;12.88;98.28
58975;BME280;44751;52.236;5.178;2022-08-06T00:10:44;102481.19;;;12.91;97.50
58975;BME280;44751;52.236;5.178;2022-08-06T00:13:14;102480.09;;;12.84;98.30
58975;BME280;44751;52.236;5.178;2022-08-06T00:15:42;102491.34;;;12.89;98.08
58975;BME280;44751;52.236;5.178;2022-08-06T00:18:09;102492.91;;;12.92;98.15
58975;BME280;44751;52.236;5.178;2022-08-06T00:20:35;102495.84;;;12.99;97.43
58975;BME280;44751;52.236;5.178;2022-08-06T00:23:01;102502.81;;;13.01;97.80
58975;BME280;44751;52.236;5.178;2022-08-06T00:25:30;102509.84;;;12.94;98.59
58975;BME280;44751;52.236;5.178;2022-08-06T00:28:04;102502.25;;;12.80;98.60
58975;BME280;44751;52.236;5.178;2022-08-06T00:30:31;102499.47;;;12.71;100.00
58975;BME280;44751;52.236;5.178;2022-08-06T00:33:15;102505.88;;;12.70;100.00
58975;BME280;44751;52.236;5.178;2022-08-06T00:35:42;102500.78;;;12.67;100.00
58975;BME280;44751;52.236;5.178;2022-08-06T00:38:12;102503.78;;;12.64;100.00
58975;BME280;44751;52.236;5.178;2022-08-06T00:40:38;102508.47;;;12.62;100.00
58975;BME280;44751;52.236;5.178;2022-08-06T00:43:16;102508.78;;;12.59;100.00
58975;BME280;44751;52.236;5.178;2022-08-06T00:45:43;102520.53;;;12.49;100.00
58975;BME280;44751;52.236;5.178;2022-08-06T00:48:11;102516.84;;;12.69;100.00
58975;BME280;44751;52.236;5.178;2022-08-06T00:50:38;102519.31;;;12.62;100.00
58975;BME280;44751;52.236;5.178;2022-08-06T00:53:14;102520.81;;;12.46;100.00
58975;BME280;44751;52.236;5.178;2022-08-06T00:55:40;102529.38;;;12.51;100.00
58975;BME280;44751;52.236;5.178;2022-08-06T00:58:13;102528.75;;;12.58;100.00
58975;BME280;44751;52.236;5.178;2022-08-06T01:00:42;102537.63;;;12.50;100.00
58975;BME280;44751;52.236;5.178;2022-08-06T01:03:09;102533.66;;;12.44;100.00
58975;BME280;44751;52.236;5.178;2022-08-06T01:05:36;102532.38;;;12.48;100.00
58975;BME280;44751;52.236;5.178;2022-08-06T01:08:03;102537.16;;;12.55;100.00
58975;BME280;44751;52.236;5.178;2022-08-06T01:10:30;102542.03;;;12.51;100.00
58975;BME280;44751;52.236;5.178;2022-08-06T01:13:13;102546.09;;;12.65;100.00
58975;BME280;44751;52.236;5.178;2022-08-06T01:15:50;102542.09;;;12.69;100.00
58975;BME280;44751;52.236;5.178;2022-08-06T01:18:28;102544.69;;;12.61;100.00
58975;BME280;44751;52.236;5.178;2022-08-06T01:26:50;102543.16;;;12.58;100.00
58975;BME280;44751;52.236;5.178;2022-08-06T01:29:34;102542.84;;;12.61;100.00
58975;BME280;44751;52.236;5.178;2022-08-06T01:32:15;102548.41;;;12.60;100.00
58975;BME280;44751;52.236;5.178;2022-08-06T01:34:48;102560.16;;;12.69;100.00
58975;BME280;44751;52.236;5.178;2022-08-06T01:37:52;102552.25;;;12.85;100.00
58975;BME280;44751;52.236;5.178;2022-08-06T01:40:26;102549.78;;;12.92;100.00
58975;BME280;44751;52.236;5.178;2022-08-06T01:43:19;102549.38;;;12.87;100.00
58975;BME280;44751;52.236;5.178;2022-08-06T01:45:48;102553.38;;;12.83;100.00
58975;BME280;44751;52.236;5.178;2022-08-06T01:48:21;102549.91;;;12.72;100.00
58975;BME280;44751;52.236;5.178;2022-08-06T01:50:50;102545.94;;;12.67;100.00
58975;BME280;44751;52.236;5.178;2022-08-06T01:53:27;102541.88;;;12.52;100.00
58975;BME280;44751;52.236;5.178;2022-08-06T01:55:57;102550.06;;;12.43;100.00
58975;BME280;44751;52.236;5.178;2022-08-06T01:58:39;102551.09;;;12.32;100.00
58975;BME280;44751;52.236;5.178;2022-08-06T02:01:12;102552.56;;;12.26;100.00
58975;BME280;44751;52.236;5.178;2022-08-06T02:03:49;102555.41;;;12.24;100.00
58975;BME280;44751;52.236;5.178;2022-08-06T02:06:44;102562.66;;;12.24;100.00
58975;BME280;44751;52.236;5.178;2022-08-06T02:09:15;102550.75;;;12.17;100.00
58975;BME280;44751;52.236;5.178;2022-08-06T02:11:47;102559.84;;;12.16;100.00
58975;BME280;44751;52.236;5.178;2022-08-06T02:14:34;102562.72;;;11.94;100.00
58975;BME280;44751;52.236;5.178;2022-08-06T02:17:02;102559.69;;;12.17;100.00
58975;BME280;44751;52.236;5.178;2022-08-06T02:19:31;102569.25;;;12.01;100.00
58975;BME280;44751;52.236;5.178;2022-08-06T02:21:59;102573.38;;;11.96;100.00
58975;BME280;44751;52.236;5.178;2022-08-06T02:24:29;102561.28;;;11.90;100.00
58975;BME280;44751;52.236;5.178;2022-08-06T02:27:01;102572.56;;;11.85;100.00
58975;BME280;44751;52.236;5.178;2022-08-06T02:29:37;102564.75;;;11.82;100.00
58975;BME280;44751;52.236;5.178;2022-08-06T02:32:15;102560.19;;;11.83;100.00
58975;BME280;44751;52.236;5.178;2022-08-06T02:34:42;102555.47;;;11.85;100.00
58975;BME280;44751;52.236;5.178;2022-08-06T02:37:16;102564.47;;;11.85;100.00
58975;BME280;44751;52.236;5.178;2022-08-06T02:40:40;102563.44;;;11.86;100.00
58975;BME280;44751;52.236;5.178;2022-08-06T02:42:55;102563.03;;;11.81;100.00
58975;BME280;44751;52.236;5.178;2022-08-06T02:46:27;102565.16;;;11.78;100.00
58975;BME280;44751;52.236;5.178;2022-08-06T02:48:59;102566.91;;;11.79;100.00
58975;BME280;44751;52.236;5.178;2022-08-06T02:51:36;102567.03;;;11.87;100.00
58975;BME280;44751;52.236;5.178;2022-08-06T02:54:08;102564.47;;;11.85;100.00
58975;BME280;44751;52.236;5.178;2022-08-06T02:56:41;102566.44;;;11.83;100.00
58975;BME280;44751;52.236;5.178;2022-08-06T02:59:44;102569.75;;;11.77;100.00
58975;BME280;44751;52.236;5.178;2022-08-06T03:02:14;102571.00;;;11.93;100.00
58975;BME280;44751;52.236;5.178;2022-08-06T03:04:47;102575.81;;;11.99;100.00
58975;BME280;44751;52.236;5.178;2022-08-06T03:07:17;102567.69;;;11.99;100.00
58975;BME280;44751;52.236;5.178;2022-08-06T03:09:47;102571.41;;;12.08;100.00
58975;BME280;44751;52.236;5.178;2022-08-06T03:12:15;102569.38;;;12.20;100.00
58975;BME280;44751;52.236;5.178;2022-08-06T03:14:55;102574.91;;;12.18;100.00
58975;BME280;44751;52.236;5.178;2022-08-06T03:17:28;102574.38;;;12.14;100.00
58975;BME280;44751;52.236;5.178;2022-08-06T03:19:57;102581.38;;;12.07;100.00
58975;BME280;44751;52.236;5.178;2022-08-06T03:22:27;102572.09;;;12.10;100.00
58975;BME280;44751;52.236;5.178;2022-08-06T03:25:01;102583.34;;;12.15;100.00
58975;BME280;44751;52.236;5.178;2022-08-06T03:27:29;102581.63;;;12.14;100.00
58975;BME280;44751;52.236;5.178;2022-08-06T03:30:18;102579.06;;;12.12;100.00
58975;BME280;44751;52.236;5.178;2022-08-06T03:32:46;102586.34;;;12.12;100.00
58975;BME280;44751;52.236;5.178;2022-08-06T03:35:14;102583.34;;;12.05;100.00
58975;BME280;44751;52.236;5.178;2022-08-06T03:37:42;102585.16;;;12.24;100.00
58975;BME280;44751;52.236;5.178;2022-08-06T03:40:12;102589.72;;;12.24;100.00
58975;BME280;44751;52.236;5.178;2022-08-06T03:42:43;102586.63;;;11.99;100.00
58975;BME280;44751;52.236;5.178;2022-08-06T03:45:24;102587.94;;;11.85;100.00
58975;BME280;44751;52.236;5.178;2022-08-06T03:47:56;102595.78;;;11.78;100.00
58975;BME280;44751;52.236;5.178;2022-08-06T03:50:33;102592.53;;;11.74;100.00
58975;BME280;44751;52.236;5.178;2022-08-06T03:53:12;102590.50;;;11.77;100.00
58975;BME280;44751;52.236;5.178;2022-08-06T03:55:40;102581.41;;;11.68;100.00
58975;BME280;44751;52.236;5.178;2022-08-06T03:58:11;102594.50;;;11.72;100.00
58975;BME280;44751;52.236;5.178;2022-08-06T04:01:04;102594.78;;;11.69;100.00
58975;BME280;44751;52.236;5.178;2022-08-06T04:03:34;102594.22;;;11.66;100.00
58975;BME280;44751;52.236;5.178;2022-08-06T04:06:03;102594.22;;;11.66;100.00
58975;BME280;44751;52.236;5.178;2022-08-06T04:08:31;102598.34;;;11.50;100.00
58975;BME280;44751;52.236;5.178;2022-08-06T04:10:59;102609.72;;;11.54;100.00
58975;BME280;44751;52.236;5.178;2022-08-06T04:13:29;102608.16;;;11.61;100.00
58975;BME280;44751;52.236;5.178;2022-08-06T04:15:59;102605.03;;;11.46;100.00
58975;BME280;44751;52.236;5.178;2022-08-06T04:18:33;102609.28;;;11.39;100.00
58975;BME280;44751;52.236;5.178;2022-08-06T04:21:01;102614.00;;;11.36;100.00
58975;BME280;44751;52.236;5.178;2022-08-06T04:23:40;102611.44;;;11.35;100.00
58975;BME280;44751;52.236;5.178;2022-08-06T04:26:08;102608.47;;;11.38;100.00
58975;BME280;44751;52.236;5.178;2022-08-06T04:28:36;102612.13;;;11.37;100.00
58975;BME280;44751;52.236;5.178;2022-08-06T04:31:24;102613.16;;;11.46;100.00
58975;BME280;44751;52.236;5.178;2022-08-06T04:33:54;102614.84;;;11.37;100.00
58975;BME280;44751;52.236;5.178;2022-08-06T04:36:31;102615.56;;;11.39;100.00
58975;BME280;44751;52.236;5.178;2022-08-06T04:38:59;102607.31;;;11.31;100.00
58975;BME280;44751;52.236;5.178;2022-08-06T04:41:30;102614.13;;;11.25;100.00
58975;BME280;44751;52.236;5.178;2022-08-06T04:43:59;102621.81;;;11.20;100.00
58975;BME280;44751;52.236;5.178;2022-08-06T04:46:33;102610.97;;;11.30;100.00
58975;BME280;44751;52.236;5.178;2022-08-06T04:49:00;102613.97;;;11.17;100.00
58975;BME280;44751;52.236;5.178;2022-08-06T04:51:30;102612.13;;;11.27;100.00
58975;BME280;44751;52.236;5.178;2022-08-06T04:54:05;102626.63;;;11.26;100.00
58975;BME280;44751;52.236;5.178;2022-08-06T04:56:32;102625.94;;;11.34;100.00
58975;BME280;44751;52.236;5.178;2022-08-06T04:58:58;102628.19;;;11.29;100.00
58975;BME280;44751;52.236;5.178;2022-08-06T05:01:33;102632.47;;;11.41;100.00
58975;BME280;44751;52.236;5.178;2022-08-06T05:04:02;102639.16;;;11.37;100.00
58975;BME280;44751;52.236;5.178;2022-08-06T05:06:43;102642.31;;;11.42;100.00
58975;BME280;44751;52.236;5.178;2022-08-06T05:09:19;102640.72;;;11.49;100.00
58975;BME280;44751;52.236;5.178;2022-08-06T05:11:56;102648.16;;;11.57;100.00
58975;BME280;44751;52.236;5.178;2022-08-06T05:14:50;102641.19;;;11.55;100.00
58975;BME280;44751;52.236;5.178;2022-08-06T05:17:24;102644.72;;;11.55;100.00
58975;BME280;44751;52.236;5.178;2022-08-06T05:20:02;102642.16;;;11.63;100.00
58975;BME280;44751;52.236;5.178;2022-08-06T05:22:31;102649.59;;;11.71;100.00
58975;BME280;44751;52.236;5.178;2022-08-06T05:24:59;102651.56;;;11.69;100.00
58975;BME280;44751;52.236;5.178;2022-08-06T05:27:29;102650.13;;;11.75;100.00
58975;BME280;44751;52.236;5.178;2022-08-06T05:29:58;102657.69;;;11.81;100.00
58975;BME280;44751;52.236;5.178;2022-08-06T05:32:24;102658.38;;;11.93;100.00
58975;BME280;44751;52.236;5.178;2022-08-06T05:34:53;102655.81;;;12.01;100.00
58975;BME280;44751;52.236;5.178;2022-08-06T05:37:19;102667.09;;;12.17;100.00
58975;BME280;44751;52.236;5.178;2022-08-06T05:39:46;102662.91;;;12.32;100.00
58975;BME280;44751;52.236;5.178;2022-08-06T05:42:12;102662.63;;;12.35;100.00
58975;BME280;44751;52.236;5.178;2022-08-06T05:44:42;102666.31;;;12.44;100.00
58975;BME280;44751;52.236;5.178;2022-08-06T05:47:31;102677.38;;;12.61;100.00
58975;BME280;44751;52.236;5.178;2022-08-06T05:50:11;102672.94;;;12.70;100.00
58975;BME280;44751;52.236;5.178;2022-08-06T05:52:48;102670.47;;;12.76;100.00
58975;BME280;44751;52.236;5.178;2022-08-06T05:55:19;102674.78;;;12.97;100.00
58975;BME280;44751;52.236;5.178;2022-08-06T05:58:00;102671.53;;;13.22;100.00
58975;BME280;44751;52.236;5.178;2022-08-06T06:00:37;102679.03;;;13.56;100.00
58975;BME280;44751;52.236;5.178;2022-08-06T06:03:08;102687.25;;;13.82;100.00
58975;BME280;44751;52.236;5.178;2022-08-06T06:05:37;102685.53;;;14.00;100.00
58975;BME280;44751;52.236;5.178;2022-08-06T06:08:05;102676.94;;;14.04;100.00
58975;BME280;44751;52.236;5.178;2022-08-06T06:10:34;102680.69;;;14.12;100.00
58975;BME280;44751;52.236;5.178;2022-08-06T06:13:02;102680.16;;;14.26;100.00
58975;BME280;44751;52.236;5.178;2022-08-06T06:15:45;102684.44;;;14.37;100.00
58975;BME280;44751;52.236;5.178;2022-08-06T06:18:17;102691.47;;;14.48;100.00
58975;BME280;44751;52.236;5.178;2022-08-06T06:21:00;102686.63;;;14.60;100.00
58975;BME280;44751;52.236;5.178;2022-08-06T06:26:37;102699.19;;;14.88;100.00
58975;BME280;44751;52.236;5.178;2022-08-06T06:35:23;102707.69;;;15.28;96.38
58975;BME280;44751;52.236;5.178;2022-08-06T06:38:19;102708.34;;;15.21;96.41
58975;BME280;44751;52.236;5.178;2022-08-06T06:44:16;102722.06;;;15.71;93.87
58975;BME280;44751;52.236;5.178;2022-08-06T06:46:56;102720.06;;;15.90;91.02
58975;BME280;44751;52.236;5.178;2022-08-06T06:49:42;102722.31;;;15.95;91.28
58975;BME280;44751;52.236;5.178;2022-08-06T06:52:21;102717.72;;;16.29;89.71
58975;BME280;44751;52.236;5.178;2022-08-06T06:54:52;102709.53;;;16.37;89.32
58975;BME280;44751;52.236;5.178;2022-08-06T06:57:29;102716.28;;;16.66;88.78
58975;BME280;44751;52.236;5.178;2022-08-06T07:00:02;102717.50;;;16.63;85.49
58975;BME280;44751;52.236;5.178;2022-08-06T07:02:37;102718.28;;;16.81;84.43
58975;BME280;44751;52.236;5.178;2022-08-06T07:05:10;102721.78;;;17.46;82.29
58975;BME280;44751;52.236;5.178;2022-08-06T07:10:15;102722.97;;;17.12;82.27
58975;BME280;44751;52.236;5.178;2022-08-06T07:12:44;102729.34;;;17.67;80.63
58975;BME280;44751;52.236;5.178;2022-08-06T07:15:12;102726.53;;;18.23;78.52
58975;BME280;44751;52.236;5.178;2022-08-06T07:17:40;102726.91;;;17.73;78.51
58975;BME280;44751;52.236;5.178;2022-08-06T07:20:09;102738.06;;;17.86;80.27
